Time,TemperatureF,DewpointF,PressureIn,WindDirection,WindDirectionDegrees,WindSpeedMPH,WindSpeedGustMPH,Humidity,HourlyPrecipIn,Conditions,Clouds,dailyrainin,SolarRadiationWatts/m^2,SoftwareType,DateUTC
2013-09-15 00:42:00,65.0,31.0,-100.00,North,1,4.0,8.0,28,-99.99,,,0.00,3.000000,,2013-09-15 07:42:00,
2013-09-15 00:52:00,65.0,31.0,-100.00,North,1,4.0,8.0,28,-99.99,,,0.00,3.000000,,2013-09-15 07:52:00,
2013-09-15 01:02:00,65.0,31.0,-100.00,North,1,4.0,8.0,28,-99.99,,,0.00,3.000000,,2013-09-15 08:02:00,
2013-09-15 01:11:00,65.0,31.0,-100.00,North,1,4.0,8.0,28,-99.99,,,0.00,3.000000,,2013-09-15 08:11:00,
2013-09-15 02:44:00,64.0,30.0,-100.00,North,1,3.0,5.0,28,-99.99,,,0.00,3.000000,,2013-09-15 09:44:00,
2013-09-15 03:13:00,64.0,30.0,-100.00,North,1,3.0,5.0,28,-99.99,,,0.00,3.000000,,2013-09-15 10:13:00,
2013-09-15 05:12:00,64.0,30.0,-100.00,North,1,3.0,5.0,28,-99.99,,,0.00,3.000000,,2013-09-15 12:12:00,
2013-09-15 05:42:00,59.0,30.0,-100.00,North,2,0.0,4.0,33,-99.99,,,0.00,3.000000,,2013-09-15 12:42:00,
2013-09-15 05:52:00,59.0,30.0,-100.00,North,2,0.0,4.0,33,-99.99,,,0.00,3.000000,,2013-09-15 12:52:00,
2013-09-15 06:01:00,59.0,30.0,-100.00,North,2,0.0,4.0,33,-99.99,,,0.00,3.000000,,2013-09-15 13:01:00,
2013-09-15 06:11:00,59.0,30.0,-100.00,North,2,0.0,4.0,33,-99.99,,,0.00,3.000000,,2013-09-15 13:11:00,
2013-09-15 06:42:00,60.0,32.0,-100.00,North,2,2.0,3.0,34,0.00,,,0.00,3.000000,,2013-09-15 13:42:00,
2013-09-15 06:53:00,60.0,32.0,-100.00,North,2,2.0,3.0,34,0.00,,,0.00,3.000000,,2013-09-15 13:53:00,
2013-09-15 07:02:00,60.0,32.0,-100.00,North,2,2.0,3.0,34,0.00,,,0.00,3.000000,,2013-09-15 14:02:00,
2013-09-15 07:11:00,60.0,32.0,-100.00,North,2,2.0,3.0,34,0.00,,,0.00,3.000000,,2013-09-15 14:11:00,
2013-09-15 12:42:00,78.0,37.0,-100.00,North,0,11.0,17.0,23,0.00,,,0.00,956.000000,,2013-09-15 19:42:00,
2013-09-15 12:52:00,78.0,37.0,-100.00,North,0,11.0,17.0,23,0.00,,,0.00,956.000000,,2013-09-15 19:52:00,
2013-09-15 13:02:00,78.0,37.0,-100.00,North,0,11.0,17.0,23,0.00,,,0.00,956.000000,,2013-09-15 20:02:00,
2013-09-15 13:11:00,78.0,37.0,-100.00,North,0,11.0,17.0,23,0.00,,,0.00,956.000000,,2013-09-15 20:11:00,
2013-09-15 13:42:00,79.0,37.0,-100.00,North,0,12.0,19.0,22,0.00,,,0.00,999.000000,,2013-09-15 20:42:00,
2013-09-15 13:53:00,79.0,37.0,-100.00,North,0,12.0,19.0,22,0.00,,,0.00,999.000000,,2013-09-15 20:53:00,
2013-09-15 14:02:00,79.0,37.0,-100.00,North,0,12.0,19.0,22,0.00,,,0.00,999.000000,,2013-09-15 21:02:00,
2013-09-15 14:11:00,79.0,37.0,-100.00,North,0,12.0,19.0,22,0.00,,,0.00,999.000000,,2013-09-15 21:11:00,
2013-09-15 14:44:00,79.0,38.0,-100.00,North,0,11.0,19.0,23,0.00,,,0.00,971.000000,,2013-09-15 21:44:00,
2013-09-15 14:54:00,79.0,38.0,-100.00,North,0,11.0,19.0,23,0.00,,,0.00,971.000000,,2013-09-15 21:54:00,
2013-09-15 15:04:00,79.0,38.0,-100.00,North,0,11.0,19.0,23,0.00,,,0.00,971.000000,,2013-09-15 22:04:00,
2013-09-15 15:14:00,79.0,38.0,-100.00,North,0,11.0,19.0,23,0.00,,,0.00,971.000000,,2013-09-15 22:14:00,
2013-09-15 15:44:00,78.0,37.0,-100.00,North,0,11.0,18.0,23,0.00,,,0.00,868.000000,,2013-09-15 22:44:00,
2013-09-15 15:53:00,78.0,37.0,-100.00,North,0,11.0,18.0,23,0.00,,,0.00,868.000000,,2013-09-15 22:53:00,
2013-09-15 16:02:00,78.0,37.0,-100.00,North,0,11.0,18.0,23,0.00,,,0.00,868.000000,,2013-09-15 23:02:00,
2013-09-15 16:12:00,78.0,37.0,-100.00,North,0,11.0,18.0,23,0.00,,,0.00,868.000000,,2013-09-15 23:12:00,
2013-09-15 16:42:00,77.0,39.0,-100.00,North,0,10.0,20.0,26,0.00,,,0.00,698.000000,,2013-09-15 23:42:00,
2013-09-15 16:53:00,77.0,39.0,-100.00,North,0,10.0,20.0,26,0.00,,,0.00,698.000000,,2013-09-15 23:53:00,
2013-09-15 17:01:00,77.0,39.0,-100.00,North,0,10.0,20.0,26,0.00,,,0.00,698.000000,,2013-09-16 00:01:00,
2013-09-15 17:11:00,77.0,39.0,-100.00,North,0,10.0,20.0,26,0.00,,,0.00,698.000000,,2013-09-16 00:11:00,
2013-09-15 17:42:00,74.0,40.0,-100.00,North,0,11.0,16.0,29,0.00,,,0.00,477.000000,,2013-09-16 00:42:00,
2013-09-15 17:52:00,74.0,40.0,-100.00,North,0,11.0,16.0,29,0.00,,,0.00,477.000000,,2013-09-16 00:52:00,
2013-09-15 18:02:00,74.0,40.0,-100.00,North,0,11.0,16.0,29,0.00,,,0.00,477.000000,,2013-09-16 01:02:00,
2013-09-15 18:12:00,74.0,40.0,-100.00,North,0,11.0,16.0,29,0.00,,,0.00,477.000000,,2013-09-16 01:12:00,
2013-09-15 18:42:00,70.0,38.0,-100.00,North,0,10.0,15.0,31,0.00,,,0.00,234.000000,,2013-09-16 01:42:00,
2013-09-15 18:52:00,70.0,38.0,-100.00,North,0,10.0,15.0,31,0.00,,,0.00,234.000000,,2013-09-16 01:52:00,
2013-09-15 19:02:00,70.0,38.0,-100.00,North,0,10.0,15.0,31,0.00,,,0.00,234.000000,,2013-09-16 02:02:00,
2013-09-15 19:12:00,70.0,38.0,-100.00,North,0,10.0,15.0,31,0.00,,,0.00,234.000000,,2013-09-16 02:12:00,
2013-09-15 19:42:00,65.0,44.0,-100.00,North,0,8.0,14.0,47,0.00,,,0.00,27.000000,,2013-09-16 02:42:00,
2013-09-15 19:52:00,65.0,44.0,-100.00,North,0,8.0,14.0,47,0.00,,,0.00,27.000000,,2013-09-16 02:52:00,
2013-09-15 20:02:00,65.0,44.0,-100.00,North,0,8.0,14.0,47,0.00,,,0.00,27.000000,,2013-09-16 03:02:00,
2013-09-15 20:11:00,65.0,44.0,-100.00,North,0,8.0,14.0,47,0.00,,,0.00,27.000000,,2013-09-16 03:11:00,
2013-09-15 20:45:00,67.0,42.0,-100.00,North,1,9.0,13.0,40,0.00,,,0.00,3.000000,,2013-09-16 03:45:00,
2013-09-15 20:55:00,67.0,42.0,-100.00,North,1,9.0,13.0,40,0.00,,,0.00,3.000000,,2013-09-16 03:55:00,
2013-09-15 21:05:00,67.0,42.0,-100.00,North,1,9.0,13.0,40,0.00,,,0.00,3.000000,,2013-09-16 04:05:00,
2013-09-15 21:13:00,67.0,42.0,-100.00,North,1,9.0,13.0,40,0.00,,,0.00,3.000000,,2013-09-16 04:13:00,
2013-09-15 21:43:00,66.0,45.0,-100.00,North,1,8.0,14.0,46,0.00,,,0.00,3.000000,,2013-09-16 04:43:00,
2013-09-15 21:54:00,66.0,45.0,-100.00,North,1,8.0,14.0,46,0.00,,,0.00,3.000000,,2013-09-16 04:54:00,
2013-09-15 22:04:00,66.0,45.0,-100.00,North,1,8.0,14.0,46,0.00,,,0.00,3.000000,,2013-09-16 05:04:00,
2013-09-15 22:12:00,66.0,45.0,-100.00,North,1,8.0,14.0,46,0.00,,,0.00,3.000000,,2013-09-16 05:12:00,
2013-09-15 22:44:00,65.0,42.0,-100.00,North,1,8.0,13.0,43,0.00,,,0.00,3.000000,,2013-09-16 05:44:00,
2013-09-15 22:53:00,65.0,42.0,-100.00,North,1,8.0,13.0,43,0.00,,,0.00,3.000000,,2013-09-16 05:53:00,
2013-09-15 23:02:00,65.0,42.0,-100.00,North,1,8.0,13.0,43,0.00,,,0.00,3.000000,,2013-09-16 06:02:00,
2013-09-15 23:12:00,65.0,42.0,-100.00,North,1,8.0,13.0,43,0.00,,,0.00,3.000000,,2013-09-16 06:12:00,
2013-09-15 23:43:00,65.0,37.0,-100.00,North,1,8.0,14.0,36,0.00,,,0.00,3.000000,,2013-09-16 06:43:00,
2013-09-15 23:52:00,65.0,37.0,-100.00,North,1,8.0,14.0,36,0.00,,,0.00,3.000000,,2013-09-16 06:52:00,